Time;durP1;ratioP1;P1;durP2;ratioP2;P2;SDS_P1;SDS_P2;PMS_P1;PMS_P2;Temp;Humidity;BMP_temperature;BMP_pressure;BME280_temperature;BME280_humidity;BME280_pressure;Samples;Min_cycle;Max_cycle;Signal;HPM_P1;HPM_P2
2022/07/25 00:00:38;;;;;;;18.13;13.07;;;24.20;70.20;;;;;;5066918;28;20182;-74
2022/07/25 00:03:04;;;;;;;18.83;12.30;;;24.20;70.10;;;;;;5068799;28;20188;-74
2022/07/25 00:05:30;;;;;;;19.03;12.70;;;24.10;70.20;;;;;;5067234;28;20297;-74
2022/07/25 00:07:56;;;;;;;15.73;11.17;;;24.10;70.20;;;;;;5061551;28;20414;-76
2022/07/25 00:10:21;;;;;;;16.47;12.50;;;24.10;70.40;;;;;;5066318;28;20415;-75
2022/07/25 00:12:47;;;;;;;16.73;12.37;;;24.00;70.40;;;;;;5066994;28;20261;-75
2022/07/25 00:15:13;;;;;;;17.27;11.87;;;24.00;70.50;;;;;;5070338;28;20185;-74
2022/07/25 00:17:39;;;;;;;17.00;11.13;;;24.00;70.50;;;;;;5061529;28;20586;-75
2022/07/25 00:20:06;;;;;;;18.47;12.57;;;24.10;70.50;;;;;;5066779;28;20267;-74
2022/07/25 00:22:31;;;;;;;16.97;11.57;;;24.10;70.40;;;;;;5071325;28;20179;-74
2022/07/25 00:24:57;;;;;;;15.57;11.93;;;24.10;70.40;;;;;;5066487;28;20791;-75
2022/07/25 00:27:22;;;;;;;14.30;11.43;;;24.10;70.40;;;;;;5063385;28;20214;-75
2022/07/25 00:29:48;;;;;;;20.40;13.40;;;24.00;70.50;;;;;;5068485;28;20621;-74
2022/07/25 00:32:14;;;;;;;19.63;12.80;;;23.90;71.00;;;;;;5064686;28;20250;-75
2022/07/25 00:34:39;;;;;;;18.63;12.67;;;23.80;71.30;;;;;;5065470;28;20248;-74
2022/07/25 00:37:05;;;;;;;19.23;12.80;;;23.90;71.10;;;;;;5056115;28;20233;-75
2022/07/25 00:39:31;;;;;;;18.53;11.67;;;23.90;71.10;;;;;;5068852;28;20183;-74
2022/07/25 00:41:56;;;;;;;21.20;13.20;;;23.90;71.30;;;;;;5071107;28;20485;-75
2022/07/25 00:44:30;;;;;;;21.97;13.07;;;23.80;71.30;;;;;;5065102;28;20239;-75
2022/07/25 00:46:56;;;;;;;18.37;13.10;;;23.90;71.10;;;;;;5059714;28;20236;-74
2022/07/25 00:49:23;;;;;;;21.70;13.67;;;23.80;70.80;;;;;;5067875;28;20416;-73
2022/07/25 00:51:49;;;;;;;27.63;12.20;;;23.80;71.00;;;;;;5065032;28;20479;-74
2022/07/25 00:54:15;;;;;;;17.10;12.70;;;23.70;71.10;;;;;;5067015;28;20804;-73
2022/07/25 00:56:42;;;;;;;18.17;12.23;;;23.60;71.30;;;;;;5065519;28;20539;-76
2022/07/25 00:59:08;;;;;;;17.33;12.00;;;23.60;71.10;;;;;;5065657;28;20277;-74
2022/07/25 01:01:34;;;;;;;19.67;12.67;;;23.60;71.10;;;;;;5069004;28;20428;-74
2022/07/25 01:04:00;;;;;;;18.70;11.73;;;23.60;70.70;;;;;;5062966;28;20484;-74
2022/07/25 01:06:26;;;;;;;14.83;10.73;;;23.70;70.20;;;;;;5067479;28;20571;-75
2022/07/25 01:08:53;;;;;;;17.03;12.23;;;23.70;70.10;;;;;;5064179;28;20496;-74
2022/07/25 01:11:19;;;;;;;18.70;13.47;;;23.60;70.40;;;;;;5067666;28;20432;-76
2022/07/25 01:13:44;;;;;;;17.93;12.10;;;23.60;71.40;;;;;;5060908;28;20408;-73
2022/07/25 01:16:10;;;;;;;22.47;12.70;;;23.60;71.60;;;;;;5060316;28;20214;-73
2022/07/25 01:18:35;;;;;;;21.17;13.53;;;23.60;71.60;;;;;;5059226;28;20187;-74
2022/07/25 01:21:01;;;;;;;19.60;13.30;;;23.50;72.10;;;;;;5065839;28;20808;-73
2022/07/25 01:23:27;;;;;;;23.80;14.63;;;23.60;72.30;;;;;;5062185;28;20605;-74
2022/07/25 01:25:53;;;;;;;20.10;12.90;;;23.50;72.10;;;;;;5062252;28;20935;-73
2022/07/25 01:28:18;;;;;;;21.10;14.27;;;23.40;72.70;;;;;;5062031;28;20672;-73
2022/07/25 01:30:44;;;;;;;24.23;13.37;;;23.30;73.00;;;;;;5068463;28;20194;-74
2022/07/25 01:33:15;;;;;;;20.90;13.80;;;23.20;73.20;;;;;;5068072;28;20325;-74
2022/07/25 01:35:40;;;;;;;17.60;12.80;;;23.20;73.00;;;;;;5064648;28;20360;-74
2022/07/25 01:38:06;;;;;;;19.97;13.87;;;23.10;73.30;;;;;;5066441;28;20876;-74
2022/07/25 01:40:31;;;;;;;15.43;11.77;;;23.10;73.00;;;;;;5064550;28;20189;-73
2022/07/25 01:42:57;;;;;;;17.70;12.07;;;23.10;72.90;;;;;;5066682;28;20266;-74
2022/07/25 01:45:23;;;;;;;20.03;12.57;;;23.10;72.70;;;;;;5065355;28;20583;-73
2022/07/25 01:47:48;;;;;;;18.40;12.93;;;23.10;73.00;;;;;;5066462;28;20200;-74
2022/07/25 01:50:14;;;;;;;15.00;11.23;;;23.10;73.30;;;;;;5066754;28;20665;-74
2022/07/25 01:52:39;;;;;;;18.27;12.33;;;23.10;73.20;;;;;;5067074;28;20193;-74
2022/07/25 01:55:06;;;;;;;16.67;11.60;;;23.10;73.30;;;;;;5059257;28;20185;-73
2022/07/25 01:57:32;;;;;;;22.00;13.93;;;23.00;73.60;;;;;;5064353;28;21063;-74
2022/07/25 01:59:58;;;;;;;21.20;13.20;;;23.10;73.60;;;;;;5066646;28;20454;-74
2022/07/25 02:02:24;;;;;;;20.30;13.70;;;23.00;73.90;;;;;;5064942;28;20660;-73
2022/07/25 02:04:50;;;;;;;16.97;13.47;;;23.00;74.30;;;;;;5064177;28;20426;-73
2022/07/25 02:07:15;;;;;;;20.20;13.30;;;23.00;74.60;;;;;;5062928;28;20209;-73
2022/07/25 02:09:41;;;;;;;23.33;14.40;;;22.90;74.60;;;;;;5063863;28;20737;-73
2022/07/25 02:12:07;;;;;;;19.43;12.70;;;22.90;74.60;;;;;;5067783;28;20660;-74
2022/07/25 02:14:33;;;;;;;20.57;14.13;;;22.90;74.60;;;;;;5065599;28;20266;-73
2022/07/25 02:16:58;;;;;;;16.93;11.90;;;22.80;74.30;;;;;;5061917;28;20471;-74
2022/07/25 02:19:24;;;;;;;20.87;14.00;;;22.70;74.50;;;;;;5060712;28;20187;-75
2022/07/25 02:21:50;;;;;;;19.47;12.80;;;22.80;74.30;;;;;;5058912;28;20573;-73
2022/07/25 02:24:16;;;;;;;21.70;14.27;;;22.70;74.50;;;;;;5062061;28;20180;-74
2022/07/25 02:26:41;;;;;;;21.07;13.87;;;22.60;74.80;;;;;;5062982;28;20217;-74
2022/07/25 02:29:07;;;;;;;19.47;13.77;;;22.60;74.90;;;;;;5055420;28;20179;-73
2022/07/25 02:31:33;;;;;;;20.77;13.17;;;22.60;75.10;;;;;;5065926;28;20183;-73
2022/07/25 02:33:58;;;;;;;17.50;12.90;;;22.60;74.90;;;;;;5066606;28;20539;-73
2022/07/25 02:36:24;;;;;;;17.70;12.10;;;22.60;74.80;;;;;;5062446;28;20286;-73
2022/07/25 02:38:50;;;;;;;19.27;12.40;;;22.60;74.80;;;;;;5065437;28;20195;-74
2022/07/25 02:41:15;;;;;;;17.70;11.87;;;22.60;74.60;;;;;;5063735;28;20197;-73
2022/07/25 02:43:41;;;;;;;17.23;11.90;;;22.60;74.60;;;;;;5067099;28;20185;-73
2022/07/25 02:46:07;;;;;;;15.13;11.20;;;22.60;74.50;;;;;;5061907;28;20299;-74
2022/07/25 02:48:32;;;;;;;18.90;11.83;;;22.70;74.30;;;;;;5059181;28;20177;-72
2022/07/25 02:50:58;;;;;;;17.10;11.90;;;22.60;74.20;;;;;;5065409;28;20178;-73
2022/07/25 02:53:23;;;;;;;19.50;12.57;;;22.60;74.00;;;;;;5066348;28;20270;-72
2022/07/25 02:55:49;;;;;;;19.43;12.57;;;22.70;73.70;;;;;;5065754;28;20203;-74
2022/07/25 02:58:15;;;;;;;19.73;12.60;;;22.60;73.70;;;;;;5062537;28;20622;-73
2022/07/25 03:00:40;;;;;;;18.00;12.07;;;22.60;73.60;;;;;;5066892;28;20659;-75
2022/07/25 03:03:07;;;;;;;18.40;12.80;;;22.60;73.50;;;;;;5068191;28;20724;-74
2022/07/25 03:05:32;;;;;;;20.20;13.20;;;22.60;73.50;;;;;;5053384;28;20324;-75
2022/07/25 03:07:58;;;;;;;23.13;12.33;;;22.50;73.60;;;;;;5064337;28;20494;-74
2022/07/25 03:10:23;;;;;;;18.67;13.17;;;22.50;73.90;;;;;;5063725;28;20180;-75
2022/07/25 03:12:49;;;;;;;18.97;11.93;;;22.50;73.60;;;;;;5063566;28;20199;-73
2022/07/25 03:15:15;;;;;;;16.03;11.43;;;22.50;73.30;;;;;;5072520;28;20186;-73
2022/07/25 03:17:41;;;;;;;16.87;11.20;;;22.40;73.60;;;;;;5078524;28;20206;-74
2022/07/25 03:20:08;;;;;;;19.77;12.53;;;22.40;73.30;;;;;;5076261;28;20183;-74
2022/07/25 03:22:34;;;;;;;17.40;11.30;;;22.40;73.50;;;;;;5074386;28;20433;-73
2022/07/25 03:24:59;;;;;;;18.43;12.30;;;22.40;73.50;;;;;;5067524;28;20440;-73
2022/07/25 03:27:25;;;;;;;18.90;12.37;;;22.40;73.60;;;;;;5064956;28;20222;-75
2022/07/25 03:29:51;;;;;;;17.33;11.87;;;22.30;73.30;;;;;;5068940;28;20575;-74
2022/07/25 03:32:17;;;;;;;18.97;12.53;;;22.40;73.30;;;;;;5070704;28;20480;-74
2022/07/25 03:34:42;;;;;;;16.90;12.50;;;22.30;73.60;;;;;;5061614;28;20243;-74
2022/07/25 03:37:08;;;;;;;16.60;12.23;;;22.30;73.60;;;;;;5060152;28;20214;-74
2022/07/25 03:39:34;;;;;;;18.10;12.43;;;22.20;73.70;;;;;;5068564;28;20709;-74
2022/07/25 03:42:00;;;;;;;17.50;11.13;;;22.20;73.70;;;;;;5067268;28;20201;-74
2022/07/25 03:44:25;;;;;;;17.17;11.67;;;22.20;73.70;;;;;;5064706;28;20187;-74
2022/07/25 03:46:51;;;;;;;17.20;12.67;;;22.20;73.90;;;;;;5065673;28;20225;-74
2022/07/25 03:49:17;;;;;;;16.73;11.57;;;22.10;74.20;;;;;;5064108;28;20192;-74
2022/07/25 03:51:43;;;;;;;19.77;11.80;;;22.10;74.30;;;;;;5064118;28;20179;-74
2022/07/25 03:54:12;;;;;;;19.53;12.43;;;22.10;74.30;;;;;;5060625;28;20433;-74
2022/07/25 03:56:47;;;;;;;18.80;12.27;;;22.00;74.50;;;;;;5069357;28;20225;-73
2022/07/25 03:59:15;;;;;;;18.03;12.37;;;22.00;74.80;;;;;;5065941;28;20453;-73
2022/07/25 04:01:41;;;;;;;20.27;12.50;;;21.90;74.90;;;;;;5069699;28;20421;-74
2022/07/25 04:04:07;;;;;;;16.83;12.57;;;21.90;74.90;;;;;;5061429;28;20817;-74
2022/07/25 04:06:32;;;;;;;17.50;12.60;;;22.00;74.80;;;;;;5064637;28;20474;-74
2022/07/25 04:08:58;;;;;;;16.47;11.43;;;22.00;74.90;;;;;;5068627;28;20197;-74
2022/07/25 04:11:24;;;;;;;18.27;11.83;;;21.90;74.90;;;;;;5072068;28;20190;-73
2022/07/25 04:13:50;;;;;;;17.03;11.87;;;22.10;74.50;;;;;;5068537;28;20199;-75
2022/07/25 04:16:17;;;;;;;19.27;11.60;;;22.10;74.60;;;;;;5069651;28;20219;-74
2022/07/25 04:18:42;;;;;;;26.63;11.73;;;22.10;74.30;;;;;;5070196;28;20465;-74
2022/07/25 04:21:08;;;;;;;16.33;11.83;;;22.20;73.90;;;;;;5067591;28;20923;-74
2022/07/25 04:23:35;;;;;;;22.93;12.97;;;22.20;73.90;;;;;;5062656;28;20282;-73
2022/07/25 04:26:01;;;;;;;22.20;13.23;;;22.20;73.70;;;;;;5063654;28;20482;-74
2022/07/25 04:28:27;;;;;;;17.80;11.93;;;22.20;73.90;;;;;;5069351;28;20428;-74
2022/07/25 04:30:53;;;;;;;16.30;12.50;;;22.20;74.00;;;;;;5061312;28;20237;-74
2022/07/25 04:33:19;;;;;;;18.20;13.07;;;22.10;74.30;;;;;;5065362;28;20501;-74
2022/07/25 04:35:45;;;;;;;18.77;12.00;;;22.10;74.30;;;;;;5061407;28;20259;-73
2022/07/25 04:38:11;;;;;;;19.90;12.13;;;22.10;74.30;;;;;;5070324;28;20469;-74
2022/07/25 04:40:37;;;;;;;16.83;12.40;;;22.00;74.60;;;;;;5066227;28;20278;-74
2022/07/25 04:43:03;;;;;;;19.47;12.03;;;22.10;74.50;;;;;;5070960;28;21434;-74
2022/07/25 04:45:30;;;;;;;19.03;12.50;;;22.10;74.50;;;;;;5069660;28;20844;-73
2022/07/25 04:47:55;;;;;;;18.77;13.50;;;22.10;74.30;;;;;;5066054;28;20430;-74
2022/07/25 04:50:21;;;;;;;20.70;13.03;;;22.20;74.20;;;;;;5072521;28;20539;-73
2022/07/25 04:52:47;;;;;;;20.70;12.43;;;22.10;74.50;;;;;;5069020;28;20190;-74
2022/07/25 04:55:12;;;;;;;17.53;12.13;;;22.20;74.60;;;;;;5069717;28;20182;-75
2022/07/25 04:57:38;;;;;;;21.23;12.47;;;22.20;74.50;;;;;;5068191;28;20183;-74
2022/07/25 05:00:06;;;;;;;16.77;11.50;;;22.10;74.80;;;;;;5068982;28;20320;-74
2022/07/25 05:02:33;;;;;;;17.27;11.90;;;22.10;74.90;;;;;;5069635;28;20187;-73
2022/07/25 05:04:59;;;;;;;19.47;12.50;;;22.20;74.60;;;;;;5066158;28;20514;-73
2022/07/25 05:07:24;;;;;;;17.80;12.40;;;22.30;74.60;;;;;;5062253;28;20915;-72
2022/07/25 05:09:50;;;;;;;16.93;11.93;;;22.40;74.20;;;;;;5071626;28;20312;-73
2022/07/25 05:12:16;;;;;;;25.53;13.17;;;22.50;74.00;;;;;;5071618;28;20179;-74
2022/07/25 05:14:41;;;;;;;20.17;12.13;;;22.60;73.70;;;;;;5062564;28;20184;-74
2022/07/25 05:17:07;;;;;;;16.30;12.10;;;22.60;73.70;;;;;;5066100;28;20324;-72
2022/07/25 05:19:33;;;;;;;17.07;11.67;;;22.70;73.50;;;;;;5071465;28;20198;-74
2022/07/25 05:21:59;;;;;;;22.53;13.10;;;22.70;73.50;;;;;;5069789;28;21244;-74
2022/07/25 05:24:25;;;;;;;22.60;12.20;;;22.80;73.20;;;;;;5068182;28;20445;-73
2022/07/25 05:26:51;;;;;;;18.90;12.63;;;22.90;72.90;;;;;;5061802;28;20224;-74
2022/07/25 05:29:16;;;;;;;19.10;11.40;;;23.00;73.00;;;;;;5067061;28;20180;-73
2022/07/25 05:31:42;;;;;;;20.43;12.80;;;23.00;72.90;;;;;;5073503;28;20555;-72
2022/07/25 05:34:09;;;;;;;16.20;10.90;;;23.10;72.70;;;;;;5076841;28;20201;-74
2022/07/25 05:36:34;;;;;;;17.73;12.43;;;23.20;72.60;;;;;;5069895;28;20458;-74
2022/07/25 05:39:00;;;;;;;20.77;11.80;;;23.30;71.80;;;;;;5079554;28;20192;-73
2022/07/25 05:41:26;;;;;;;19.47;11.00;;;23.40;72.00;;;;;;5081280;28;20174;-73
2022/07/25 05:43:51;;;;;;;18.83;12.30;;;23.50;71.40;;;;;;5085953;28;20256;-73
2022/07/25 05:46:17;;;;;;;20.37;12.80;;;23.50;71.60;;;;;;5087834;28;20211;-73
2022/07/25 05:48:43;;;;;;;18.93;12.53;;;23.60;71.60;;;;;;5089199;28;20231;-74
2022/07/25 05:51:09;;;;;;;15.50;11.80;;;23.70;71.00;;;;;;5082359;28;20190;-74
2022/07/25 05:53:35;;;;;;;15.30;11.83;;;23.80;70.80;;;;;;5085009;28;20474;-73
2022/07/25 05:56:00;;;;;;;19.97;13.10;;;23.90;70.70;;;;;;5082143;28;20456;-73
2022/07/25 05:58:26;;;;;;;17.80;12.90;;;23.90;70.10;;;;;;5086355;28;20186;-74
2022/07/25 06:00:52;;;;;;;20.60;13.57;;;24.00;70.20;;;;;;5085510;28;20186;-73
2022/07/25 06:03:18;;;;;;;18.13;13.27;;;24.10;69.50;;;;;;5086713;28;20425;-73
2022/07/25 06:05:45;;;;;;;19.33;11.80;;;24.10;69.10;;;;;;5082415;28;20252;-73
2022/07/25 06:08:12;;;;;;;18.23;12.67;;;24.30;67.20;;;;;;5081501;28;20415;-74
2022/07/25 06:10:38;;;;;;;20.30;11.80;;;24.40;67.20;;;;;;5075228;28;20427;-74
2022/07/25 06:13:04;;;;;;;25.80;12.30;;;24.60;67.50;;;;;;5068661;28;20458;-73
2022/07/25 06:15:30;;;;;;;18.80;12.53;;;24.70;67.50;;;;;;5053930;28;20804;-73
2022/07/25 06:17:55;;;;;;;18.67;13.37;;;24.80;67.00;;;;;;5064981;28;20445;-74
2022/07/25 06:20:21;;;;;;;20.00;12.40;;;24.90;64.40;;;;;;5060657;28;20187;-74
2022/07/25 06:22:47;;;;;;;16.60;11.63;;;25.00;65.00;;;;;;5067207;28;20611;-73
2022/07/25 06:25:13;;;;;;;20.90;12.97;;;25.10;64.70;;;;;;5065111;28;20176;-73
2022/07/25 06:27:39;;;;;;;23.57;13.40;;;25.20;63.70;;;;;;5062312;28;20199;-73
2022/07/25 06:30:06;;;;;;;16.83;12.10;;;25.30;63.50;;;;;;5063531;28;20423;-75
2022/07/25 06:32:32;;;;;;;21.00;11.80;;;25.40;62.20;;;;;;5064152;28;20185;-74
2022/07/25 06:34:58;;;;;;;17.43;12.47;;;25.50;62.30;;;;;;5067089;28;20438;-75
2022/07/25 06:37:23;;;;;;;18.87;12.17;;;25.60;61.90;;;;;;5064952;28;20210;-74
2022/07/25 06:39:49;;;;;;;18.73;12.13;;;25.70;61.60;;;;;;5068240;28;20190;-73
2022/07/25 06:42:15;;;;;;;17.87;13.00;;;25.80;61.30;;;;;;5068227;28;20185;-74
2022/07/25 06:44:40;;;;;;;19.13;12.73;;;25.90;61.30;;;;;;5085264;28;20178;-73
2022/07/25 06:47:11;;;;;;;20.73;12.80;;;26.00;61.30;;;;;;5082924;28;20213;-74
2022/07/25 06:49:37;;;;;;;25.30;13.17;;;26.10;61.20;;;;;;5080506;28;20182;-74
2022/07/25 06:52:04;;;;;;;17.43;12.33;;;26.30;61.50;;;;;;5075086;28;20424;-74
2022/07/25 06:54:29;;;;;;;23.47;13.20;;;26.40;60.90;;;;;;5074216;28;20409;-74
2022/07/25 06:56:55;;;;;;;18.20;12.13;;;26.50;60.40;;;;;;5074255;28;20470;-73
2022/07/25 06:59:20;;;;;;;19.40;12.07;;;26.60;60.10;;;;;;5075648;28;20183;-74
2022/07/25 07:01:46;;;;;;;14.23;11.17;;;26.80;60.10;;;;;;5074559;28;20600;-74
2022/07/25 07:04:11;;;;;;;18.30;12.80;;;26.90;58.90;;;;;;5061653;28;20186;-73
2022/07/25 07:06:38;;;;;;;18.93;11.73;;;27.00;59.10;;;;;;5065394;28;20707;-75
2022/07/25 07:09:04;;;;;;;17.17;12.00;;;27.00;59.30;;;;;;5064857;28;20574;-75
2022/07/25 07:11:30;;;;;;;15.77;11.53;;;27.10;59.50;;;;;;5069383;28;20857;-77
2022/07/25 07:13:56;;;;;;;18.00;12.37;;;27.20;59.10;;;;;;5068597;28;20452;-74
2022/07/25 07:16:21;;;;;;;20.97;12.50;;;27.30;58.70;;;;;;5059410;28;20226;-76
2022/07/25 07:18:47;;;;;;;17.60;12.23;;;27.30;58.70;;;;;;5062086;28;20646;-74
2022/07/25 07:21:12;;;;;;;14.03;10.90;;;27.40;58.20;;;;;;5069367;28;20265;-73
2022/07/25 07:23:38;;;;;;;16.23;12.50;;;27.50;57.70;;;;;;5066503;28;20290;-73
2022/07/25 07:26:04;;;;;;;16.37;11.60;;;27.60;57.40;;;;;;5065801;28;20229;-73
2022/07/25 07:28:29;;;;;;;16.00;12.27;;;27.70;57.40;;;;;;5069614;28;20640;-75
2022/07/25 07:30:55;;;;;;;15.83;12.17;;;27.70;57.70;;;;;;5072713;28;20269;-74
2022/07/25 07:33:20;;;;;;;18.60;12.40;;;27.90;57.40;;;;;;5067029;28;20188;-74
2022/07/25 07:35:46;;;;;;;18.30;12.77;;;27.90;57.40;;;;;;5069023;28;20777;-73
2022/07/25 07:38:12;;;;;;;16.63;12.63;;;28.00;57.40;;;;;;5072445;28;20274;-74
2022/07/25 07:40:37;;;;;;;20.80;12.17;;;28.10;57.30;;;;;;5078812;28;20181;-75
2022/07/25 07:43:03;;;;;;;15.70;12.70;;;28.10;57.30;;;;;;5084423;28;20209;-74
2022/07/25 07:45:29;;;;;;;19.63;12.67;;;28.30;57.00;;;;;;5082964;28;20199;-73
2022/07/25 07:47:55;;;;;;;16.73;12.70;;;28.30;56.90;;;;;;5079257;28;20637;-73
2022/07/25 07:50:24;;;;;;;15.37;11.00;;;28.40;56.80;;;;;;5071976;28;20422;-74
2022/07/25 07:52:50;;;;;;;17.10;11.77;;;28.40;56.90;;;;;;5071657;28;20191;-73
2022/07/25 07:58:00;;;;;;;19.43;13.40;;;28.60;56.10;;;;;;5066680;28;20424;-74
2022/07/25 08:00:29;;;;;;;18.63;12.97;;;28.70;55.80;;;;;;5069875;28;20417;-74
2022/07/25 08:02:54;;;;;;;18.13;12.73;;;28.80;55.60;;;;;;5066870;28;20275;-74
2022/07/25 08:05:26;;;;;;;15.67;11.63;;;28.90;55.40;;;;;;5074810;28;21003;-72
2022/07/25 08:07:52;;;;;;;15.63;12.27;;;29.00;55.00;;;;;;5068703;28;20192;-74
2022/07/25 08:10:21;;;;;;;19.47;13.00;;;29.10;55.20;;;;;;5069838;28;20980;-73
2022/07/25 08:12:48;;;;;;;18.00;13.17;;;29.20;55.00;;;;;;5070508;28;21105;-74
2022/07/25 08:15:13;;;;;;;17.77;13.30;;;29.30;54.80;;;;;;5072351;28;20410;-74
2022/07/25 08:17:39;;;;;;;16.93;12.67;;;29.30;54.20;;;;;;5070136;28;20450;-74
2022/07/25 08:20:07;;;;;;;16.83;12.93;;;29.40;53.80;;;;;;5065825;28;20184;-74
2022/07/25 08:22:40;;;;;;;17.97;12.90;;;29.50;53.80;;;;;;5072392;28;20180;-73
2022/07/25 08:25:07;;;;;;;19.10;12.70;;;29.50;53.80;;;;;;5076420;28;20548;-73
2022/07/25 08:27:33;;;;;;;16.93;13.13;;;29.60;54.00;;;;;;5077659;28;20531;-73
2022/07/25 08:30:00;;;;;;;15.37;11.80;;;29.80;53.60;;;;;;5079612;28;20422;-73
2022/07/25 08:32:27;;;;;;;16.57;13.57;;;29.90;53.00;;;;;;5080718;28;20176;-74
2022/07/25 08:34:53;;;;;;;17.90;12.30;;;29.90;52.80;;;;;;5072425;28;20484;-74
2022/07/25 08:37:19;;;;;;;18.17;11.83;;;30.00;52.10;;;;;;5066570;28;20454;-74
2022/07/25 08:39:44;;;;;;;18.73;12.73;;;30.10;51.30;;;;;;5067440;28;21015;-73
2022/07/25 08:42:10;;;;;;;17.10;12.50;;;30.20;50.70;;;;;;5073386;28;20191;-74
2022/07/25 08:44:40;;;;;;;14.53;11.43;;;30.20;50.70;;;;;;5069208;28;20566;-74
2022/07/25 08:47:07;;;;;;;16.43;12.13;;;30.30;50.50;;;;;;5071237;28;20212;-74
2022/07/25 08:49:34;;;;;;;15.87;12.20;;;30.40;50.50;;;;;;5063568;28;20454;-74
2022/07/25 08:52:01;;;;;;;16.40;11.70;;;30.40;50.30;;;;;;5066212;28;20422;-74
2022/07/25 08:54:27;;;;;;;17.17;11.17;;;30.60;48.30;;;;;;5065090;28;20422;-73
2022/07/25 08:56:52;;;;;;;14.80;11.67;;;30.90;47.00;;;;;;5071010;28;20462;-73
2022/07/25 08:59:18;;;;;;;19.47;11.63;;;31.00;46.20;;;;;;5062594;28;20679;-73
2022/07/25 09:01:44;;;;;;;15.93;12.13;;;31.10;45.70;;;;;;5071808;28;20189;-75
2022/07/25 09:04:09;;;;;;;14.10;10.90;;;31.10;45.90;;;;;;5064597;28;20565;-74
2022/07/25 09:06:36;;;;;;;16.30;11.13;;;31.10;45.10;;;;;;5063899;28;20216;-73
2022/07/25 09:09:07;;;;;;;14.73;10.97;;;31.10;44.50;;;;;;5072477;28;20184;-74
2022/07/25 09:11:35;;;;;;;17.10;12.63;;;31.10;44.90;;;;;;5068017;28;20457;-74
2022/07/25 09:14:09;;;;;;;16.43;11.80;;;31.00;44.70;;;;;;5061522;28;20423;-75
2022/07/25 09:16:37;;;;;;;19.10;11.50;;;31.10;45.30;;;;;;5072342;28;20486;-74
2022/07/25 09:19:17;;;;;;;16.07;11.17;;;31.20;45.30;;;;;;5073251;28;20457;-73
2022/07/25 09:21:45;;;;;;;16.90;11.93;;;31.30;45.30;;;;;;5080840;28;20973;-73
2022/07/25 09:24:17;;;;;;;15.03;11.37;;;31.40;44.70;;;;;;5071269;28;20424;-75
2022/07/25 09:26:51;;;;;;;14.33;10.40;;;31.50;43.70;;;;;;5067425;28;20501;-74
2022/07/25 09:29:27;;;;;;;17.33;11.57;;;31.70;43.00;;;;;;5071636;28;20421;-74
2022/07/25 09:31:55;;;;;;;15.73;11.13;;;31.90;41.80;;;;;;5075960;28;20429;-74
2022/07/25 09:34:38;;;;;;;17.13;11.43;;;31.90;42.00;;;;;;5075424;28;20434;-74
2022/07/25 09:37:06;;;;;;;16.83;12.17;;;31.80;42.60;;;;;;5069467;28;20461;-74
2022/07/25 09:39:43;;;;;;;15.70;11.40;;;31.80;42.80;;;;;;5069725;28;20435;-72
2022/07/25 09:42:22;;;;;;;14.53;11.60;;;31.80;42.80;;;;;;5069946;28;20908;-74
2022/07/25 09:45:10;;;;;;;14.70;11.70;;;31.70;42.60;;;;;;5062413;28;20419;-75
2022/07/25 09:47:52;;;;;;;17.97;11.80;;;31.60;42.80;;;;;;5066464;28;20535;-75
2022/07/25 09:50:18;;;;;;;17.57;12.20;;;31.70;42.70;;;;;;5068188;28;20422;-74
2022/07/25 09:52:45;;;;;;;14.80;12.00;;;31.80;42.80;;;;;;5068026;28;20426;-73
2022/07/25 09:55:12;;;;;;;17.13;11.30;;;31.90;42.70;;;;;;5074154;28;20460;-74
2022/07/25 09:57:39;;;;;;;17.87;11.80;;;31.70;42.70;;;;;;5071415;28;20514;-74
2022/07/25 10:00:06;;;;;;;15.27;11.83;;;31.80;42.70;;;;;;5075529;28;20426;-74
2022/07/25 10:02:44;;;;;;;17.03;12.07;;;31.90;42.30;;;;;;5073960;28;20556;-74
2022/07/25 10:05:15;;;;;;;16.70;13.50;;;31.80;42.70;;;;;;5070249;28;20542;-75
2022/07/25 10:07:48;;;;;;;20.83;12.27;;;31.90;42.60;;;;;;5069589;28;20470;-75
2022/07/25 10:10:31;;;;;;;14.23;10.87;;;32.00;42.30;;;;;;5072609;28;20495;-74
2022/07/25 10:13:04;;;;;;;17.00;12.37;;;32.30;42.00;;;;;;5068743;28;20921;-75
2022/07/25 10:15:42;;;;;;;15.17;12.17;;;32.70;41.60;;;;;;5069736;28;20502;-74
2022/07/25 10:18:08;;;;;;;17.20;12.23;;;32.70;41.80;;;;;;5068403;28;20457;-74
2022/07/25 10:20:34;;;;;;;15.33;12.47;;;32.70;41.40;;;;;;5069785;28;20529;-74
2022/07/25 10:23:00;;;;;;;15.07;11.70;;;32.90;41.40;;;;;;5069740;28;20458;-74
2022/07/25 10:25:26;;;;;;;18.07;13.10;;;33.40;40.30;;;;;;5064683;28;20994;-74
2022/07/25 10:28:01;;;;;;;16.80;13.37;;;33.90;39.40;;;;;;5065336;28;20180;-74
2022/07/25 10:30:38;;;;;;;18.03;11.90;;;33.80;38.80;;;;;;5067536;28;20946;-75
2022/07/25 10:33:11;;;;;;;16.60;12.90;;;33.30;39.90;;;;;;5066977;28;20461;-74
2022/07/25 10:35:37;;;;;;;18.43;12.10;;;33.30;39.90;;;;;;5062789;28;20431;-74
2022/07/25 10:38:04;;;;;;;14.70;10.77;;;33.40;39.40;;;;;;5069721;28;20449;-74
2022/07/25 10:40:38;;;;;;;15.93;12.20;;;33.80;39.10;;;;;;5067880;28;20679;-74
2022/07/25 10:43:24;;;;;;;14.37;11.87;;;34.50;37.60;;;;;;5065513;28;20501;-75
2022/07/25 10:45:53;;;;;;;15.73;12.10;;;34.50;37.60;;;;;;5063565;28;20555;-74
2022/07/25 10:48:30;;;;;;;16.83;13.00;;;34.10;38.60;;;;;;5066148;28;20429;-74
2022/07/25 10:51:01;;;;;;;14.63;11.33;;;34.00;38.00;;;;;;5072849;28;20897;-74
2022/07/25 10:53:47;;;;;;;15.63;11.47;;;34.10;37.90;;;;;;5072088;28;20420;-75
2022/07/25 10:56:25;;;;;;;16.43;11.73;;;34.00;37.50;;;;;;5067023;28;20528;-75
2022/07/25 10:58:52;;;;;;;16.07;11.23;;;34.00;37.40;;;;;;5069389;28;20474;-75
2022/07/25 11:01:40;;;;;;;15.40;9.83;;;34.30;37.40;;;;;;5067507;28;20423;-73
2022/07/25 11:04:14;;;;;;;11.57;9.50;;;34.50;35.70;;;;;;5077429;28;20429;-73
2022/07/25 11:06:41;;;;;;;16.27;10.40;;;34.10;36.00;;;;;;5063160;28;20476;-74
2022/07/25 11:09:13;;;;;;;18.80;12.00;;;34.50;36.20;;;;;;5064581;28;20841;-75
2022/07/25 11:11:47;;;;;;;15.23;10.90;;;34.50;36.60;;;;;;5058472;28;20423;-75
2022/07/25 11:14:15;;;;;;;17.07;10.67;;;34.60;35.90;;;;;;5067286;28;20868;-75
2022/07/25 11:16:41;;;;;;;14.00;10.20;;;34.10;36.20;;;;;;5066321;28;20488;-75
2022/07/25 11:19:21;;;;;;;14.70;10.80;;;33.70;37.20;;;;;;5067658;28;20501;-75
2022/07/25 11:21:53;;;;;;;13.23;10.07;;;33.60;37.00;;;;;;5068935;28;20782;-74
2022/07/25 11:24:19;;;;;;;13.40;10.90;;;33.70;37.10;;;;;;5066979;28;20430;-74
2022/07/25 11:26:50;;;;;;;13.17;10.20;;;34.00;37.00;;;;;;5066031;28;20484;-74
2022/07/25 11:29:20;;;;;;;11.83;10.10;;;34.30;36.20;;;;;;5066254;28;20188;-74
2022/07/25 11:31:58;;;;;;;15.20;10.20;;;34.30;35.30;;;;;;5064001;28;20424;-74
2022/07/25 11:34:30;;;;;;;23.23;10.50;;;34.50;35.10;;;;;;5060722;28;20449;-74
2022/07/25 11:36:57;;;;;;;11.37;9.67;;;34.70;35.10;;;;;;5062706;28;20471;-73
2022/07/25 11:39:29;;;;;;;11.77;9.67;;;34.90;34.70;;;;;;5069792;28;20921;-74
2022/07/25 11:42:02;;;;;;;15.23;9.83;;;35.40;33.70;;;;;;5066963;28;20797;-75
2022/07/25 11:44:48;;;;;;;10.33;9.33;;;35.50;33.10;;;;;;5065349;28;20449;-76
2022/07/25 11:47:40;;;;;;;11.70;10.10;;;35.40;33.50;;;;;;5059619;28;20478;-75
2022/07/25 11:50:08;;;;;;;13.50;9.50;;;35.90;32.70;;;;;;5059715;28;20937;-77
2022/07/25 11:52:36;;;;;;;15.13;8.90;;;35.90;32.30;;;;;;5064517;28;20438;-75
2022/07/25 11:55:04;;;;;;;18.30;9.60;;;36.20;32.00;;;;;;5064212;28;20427;-75
2022/07/25 11:57:35;;;;;;;12.20;9.83;;;37.00;31.10;;;;;;5063350;28;20461;-75
2022/07/25 12:00:04;;;;;;;13.20;10.10;;;36.90;30.80;;;;;;5067939;28;20410;-75
2022/07/25 12:02:36;;;;;;;13.80;9.93;;;37.00;30.90;;;;;;5069673;28;20432;-74
2022/07/25 12:05:10;;;;;;;13.47;9.63;;;37.30;30.70;;;;;;5069688;28;20419;-75
2022/07/25 12:07:40;;;;;;;11.63;9.10;;;37.20;30.70;;;;;;5066560;28;20481;-74
2022/07/25 12:10:08;;;;;;;14.93;8.93;;;37.20;30.90;;;;;;5062133;28;20937;-74
2022/07/25 12:12:47;;;;;;;10.73;8.73;;;37.60;29.00;;;;;;5067931;28;20518;-74
2022/07/25 12:15:13;;;;;;;11.00;8.73;;;36.50;30.70;;;;;;5069214;28;20815;-75
2022/07/25 12:17:39;;;;;;;12.53;7.43;;;36.00;31.60;;;;;;5070565;28;20568;-75
2022/07/25 12:20:20;;;;;;;10.00;7.00;;;36.40;29.30;;;;;;5073076;28;20206;-74
2022/07/25 12:22:47;;;;;;;11.53;6.50;;;36.70;27.90;;;;;;5071637;28;20417;-74
2022/07/25 12:25:13;;;;;;;9.90;6.40;;;37.20;27.20;;;;;;5070648;28;20417;-75
2022/07/25 12:27:40;;;;;;;9.43;6.57;;;37.50;27.10;;;;;;5072867;28;21010;-75
2022/07/25 12:30:07;;;;;;;10.43;7.63;;;37.50;27.40;;;;;;5062768;28;20438;-75
2022/07/25 12:32:35;;;;;;;10.33;8.90;;;36.50;29.80;;;;;;5067296;28;20414;-75